Time;durP1;ratioP1;P1;durP2;ratioP2;P2;SDS_P1;SDS_P2;PMS_P1;PMS_P2;Temp;Humidity;BMP_temperature;BMP_pressure;BME280_temperature;BME280_humidity;BME280_pressure;Samples;Min_cycle;Max_cycle;Signal;HPM_P1;HPM_P2
2022/10/02 00:02:23;;;;;;;37.88;20.27;;;;;;;;;;5030470;28;20048;-59
2022/10/02 00:04:54;;;;;;;24.50;18.70;;;;;;;;;;5033865;28;20468;-62
2022/10/02 00:07:25;;;;;;;25.50;19.15;;;;;;;;;;5034099;28;20429;-62
2022/10/02 00:09:53;;;;;;;29.45;19.23;;;;;;;;;;5034271;28;20041;-62
2022/10/02 00:12:20;;;;;;;26.48;19.50;;;;;;;;;;5034157;28;20028;-61
2022/10/02 00:14:48;;;;;;;26.90;18.92;;;;;;;;;;5033790;28;20061;-62
2022/10/02 00:17:19;;;;;;;29.47;19.90;;;;;;;;;;5033700;28;20414;-61
2022/10/02 00:19:45;;;;;;;29.85;19.27;;;;;;;;;;5034071;28;20286;-61
2022/10/02 00:22:11;;;;;;;26.48;19.38;;;;;;;;;;5033504;28;20755;-62
2022/10/02 00:24:50;;;;;;;26.08;18.65;;;;;;;;;;5033500;28;20033;-59
2022/10/02 00:27:22;;;;;;;30.20;18.02;;;;;;;;;;5015667;28;20040;-62
2022/10/02 00:29:53;;;;;;;31.80;17.30;;;;;;;;;;5033418;28;20098;-62
2022/10/02 00:32:25;;;;;;;25.65;18.15;;;;;;;;;;5034399;28;20447;-63
2022/10/02 00:35:20;;;;;;;24.52;17.90;;;;;;;;;;5034448;28;20025;-62
2022/10/02 00:37:55;;;;;;;32.22;18.23;;;;;;;;;;5025435;28;20057;-62
2022/10/02 00:40:44;;;;;;;28.20;16.60;;;;;;;;;;5034530;28;20036;-62
2022/10/02 00:43:10;;;;;;;;;;;;;;;;;;5033765;28;20036;-62
2022/10/02 00:45:36;;;;;;;25.20;18.52;;;;;;;;;;5034102;28;19912;-62
2022/10/02 00:48:02;;;;;;;32.75;15.32;;;;;;;;;;5033686;28;20485;-62
2022/10/02 00:50:47;;;;;;;28.98;15.25;;;;;;;;;;5015685;28;20422;-62
2022/10/02 00:53:31;;;;;;;28.55;14.90;;;;;;;;;;5033918;28;20025;-62
2022/10/02 00:55:57;;;;;;;26.45;14.90;;;;;;;;;;5033740;28;20033;-62
2022/10/02 00:58:26;;;;;;;25.25;12.95;;;;;;;;;;5033470;28;20029;-63
2022/10/02 01:01:08;;;;;;;30.13;13.80;;;;;;;;;;5033093;28;20080;-62
2022/10/02 01:03:41;;;;;;;26.80;14.73;;;;;;;;;;5015554;28;20623;-62
2022/10/02 01:06:08;;;;;;;27.60;15.80;;;;;;;;;;5032931;28;20370;-60
2022/10/02 01:08:35;;;;;;;21.33;12.38;;;;;;;;;;5032465;28;20396;-61
2022/10/02 01:11:01;;;;;;;27.95;13.65;;;;;;;;;;5032999;28;20031;-62
2022/10/02 01:13:27;;;;;;;27.77;12.60;;;;;;;;;;5032714;28;20159;-61
2022/10/02 01:15:54;;;;;;;24.98;12.73;;;;;;;;;;5033044;28;20026;-62
2022/10/02 01:18:20;;;;;;;27.35;12.90;;;;;;;;;;5032747;28;20044;-65
2022/10/02 01:20:48;;;;;;;28.02;14.00;;;;;;;;;;5015041;28;20025;-62
2022/10/02 01:23:20;;;;;;;27.92;12.25;;;;;;;;;;5032776;28;20022;-62
2022/10/02 01:25:46;;;;;;;29.90;12.95;;;;;;;;;;5032651;28;20052;-62
2022/10/02 01:28:12;;;;;;;26.92;13.27;;;;;;;;;;5032652;28;20022;-62
2022/10/02 01:30:40;;;;;;;26.15;12.52;;;;;;;;;;5014910;28;20021;-62
2022/10/02 01:33:07;;;;;;;33.35;13.95;;;;;;;;;;5032303;28;20036;-61
2022/10/02 01:35:36;;;;;;;32.72;13.57;;;;;;;;;;5032416;28;20091;-62
2022/10/02 01:38:04;;;;;;;31.38;13.48;;;;;;;;;;5032364;28;20528;-61
2022/10/02 01:40:31;;;;;;;31.63;14.05;;;;;;;;;;5032306;28;20037;-62
2022/10/02 01:43:04;;;;;;;26.85;13.27;;;;;;;;;;5032369;28;20025;-63
2022/10/02 01:45:43;;;;;;;26.58;13.57;;;;;;;;;;5032281;28;20048;-61
2022/10/02 01:48:29;;;;;;;27.20;14.10;;;;;;;;;;5032101;28;20055;-63
2022/10/02 01:51:08;;;;;;;26.92;13.07;;;;;;;;;;5014620;28;20103;-61
2022/10/02 01:53:44;;;;;;;30.08;14.45;;;;;;;;;;5031889;28;20032;-62
2022/10/02 01:56:23;;;;;;;31.35;13.57;;;;;;;;;;5032150;28;20032;-63
2022/10/02 01:58:54;;;;;;;31.35;14.38;;;;;;;;;;5032379;28;20036;-63
2022/10/02 02:01:23;;;;;;;31.48;12.48;;;;;;;;;;5032296;28;20029;-63
2022/10/02 02:03:54;;;;;;;30.85;13.13;;;;;;;;;;5031721;28;20033;-63
2022/10/02 02:06:29;;;;;;;33.03;13.90;;;;;;;;;;5032185;28;20036;-60
2022/10/02 02:09:18;;;;;;;27.33;13.43;;;;;;;;;;5031983;28;20024;-62
2022/10/02 02:11:48;;;;;;;25.83;13.20;;;;;;;;;;5008759;28;20033;-62
2022/10/02 02:14:16;;;;;;;29.50;14.20;;;;;;;;;;5031001;28;20503;-62
2022/10/02 02:16:48;;;;;;;35.17;14.18;;;;;;;;;;5013580;28;20123;-62
2022/10/02 02:19:20;;;;;;;33.00;14.68;;;;;;;;;;5031682;28;20036;-61
2022/10/02 02:22:00;;;;;;;36.28;15.23;;;;;;;;;;5031860;28;20059;-62
2022/10/02 02:24:31;;;;;;;32.45;16.15;;;;;;;;;;5031459;28;20079;-62
2022/10/02 02:26:58;;;;;;;28.48;13.68;;;;;;;;;;5031661;28;20076;-62
2022/10/02 02:29:26;;;;;;;28.30;13.82;;;;;;;;;;5031617;28;20100;-62
2022/10/02 02:31:54;;;;;;;41.00;16.85;;;;;;;;;;5031573;28;20111;-62
2022/10/02 02:34:29;;;;;;;26.83;14.73;;;;;;;;;;5033380;28;20028;-62
2022/10/02 02:36:59;;;;;;;31.48;14.68;;;;;;;;;;5033681;28;20044;-63
2022/10/02 02:39:30;;;;;;;33.90;15.05;;;;;;;;;;5034160;28;20029;-63
2022/10/02 02:42:00;;;;;;;32.13;15.57;;;;;;;;;;5033949;28;20044;-63
2022/10/02 02:44:28;;;;;;;31.98;15.32;;;;;;;;;;5032684;28;20034;-63
2022/10/02 02:47:04;;;;;;;42.05;17.77;;;;;;;;;;5032268;28;20038;-62
2022/10/02 02:49:45;;;;;;;30.15;15.10;;;;;;;;;;5014429;28;20034;-63
2022/10/02 02:52:16;;;;;;;34.08;16.48;;;;;;;;;;5031759;28;20036;-63
2022/10/02 02:54:44;;;;;;;33.20;19.45;;;;;;;;;;5031567;28;20033;-63
2022/10/02 02:57:11;;;;;;;36.15;19.52;;;;;;;;;;5013762;28;20052;-62
2022/10/02 02:59:39;;;;;;;28.67;17.70;;;;;;;;;;5030752;28;20409;-61
2022/10/02 03:02:05;;;;;;;29.55;18.33;;;;;;;;;;5031292;28;20037;-62
2022/10/02 03:04:31;;;;;;;31.48;23.00;;;;;;;;;;5031218;28;20079;-62
2022/10/02 03:06:58;;;;;;;33.17;29.42;;;;;;;;;;5035138;28;20022;-60
2022/10/02 03:09:25;;;;;;;45.03;36.20;;;;;;;;;;5035373;28;20109;-62
2022/10/02 03:11:51;;;;;;;42.35;36.28;;;;;;;;;;5035146;28;20041;-61
2022/10/02 03:14:17;;;;;;;42.85;34.80;;;;;;;;;;5017352;28;20017;-62
2022/10/02 03:17:02;;;;;;;43.50;39.35;;;;;;;;;;5034893;28;20030;-61
2022/10/02 03:19:31;;;;;;;43.28;38.90;;;;;;;;;;5035111;28;20573;-62
2022/10/02 03:22:03;;;;;;;46.92;42.00;;;;;;;;;;5017255;28;20033;-62
2022/10/02 03:24:39;;;;;;;56.95;49.33;;;;;;;;;;5034601;28;20065;-60
2022/10/02 03:27:08;;;;;;;81.18;73.05;;;;;;;;;;5034799;28;20025;-59
2022/10/02 03:29:36;;;;;;;82.10;72.90;;;;;;;;;;5017034;28;20021;-61
2022/10/02 03:32:04;;;;;;;78.45;63.17;;;;;;;;;;5034499;28;20028;-61
2022/10/02 03:34:31;;;;;;;53.67;48.47;;;;;;;;;;5016751;28;20033;-60
2022/10/02 03:36:57;;;;;;;53.45;48.20;;;;;;;;;;5034566;28;20489;-60
2022/10/02 03:39:24;;;;;;;51.67;46.58;;;;;;;;;;5034578;28;20393;-57
2022/10/02 03:41:50;;;;;;;50.75;46.08;;;;;;;;;;5034469;28;20033;-61
2022/10/02 03:44:16;;;;;;;54.33;49.13;;;;;;;;;;5034246;28;20033;-61
2022/10/02 03:46:42;;;;;;;53.38;47.85;;;;;;;;;;5034362;28;20025;-62
2022/10/02 03:49:08;;;;;;;53.22;47.67;;;;;;;;;;5034450;28;20072;-61
2022/10/02 03:51:34;;;;;;;52.97;47.38;;;;;;;;;;5034446;28;20488;-61
2022/10/02 03:54:00;;;;;;;53.33;47.40;;;;;;;;;;5034153;28;20040;-62
2022/10/02 03:56:37;;;;;;;55.15;49.92;;;;;;;;;;5033660;28;20038;-62
2022/10/02 03:59:09;;;;;;;55.75;49.92;;;;;;;;;;5034107;28;20029;-62
2022/10/02 04:01:39;;;;;;;56.22;50.35;;;;;;;;;;5033816;28;20032;-62
2022/10/02 04:04:13;;;;;;;57.03;49.75;;;;;;;;;;5033538;28;20032;-61
2022/10/02 04:07:12;;;;;;;52.33;46.85;;;;;;;;;;5018893;28;20032;-60
2022/10/02 04:09:55;;;;;;;56.03;46.83;;;;;;;;;;5020476;28;20044;-61
2022/10/02 04:12:33;;;;;;;50.22;44.80;;;;;;;;;;5052445;28;20032;-61
2022/10/02 04:15:06;;;;;;;57.10;48.70;;;;;;;;;;5053342;28;20025;-62
2022/10/02 04:17:35;;;;;;;51.88;46.58;;;;;;;;;;5052885;28;20400;-61
2022/10/02 04:20:11;;;;;;;51.45;46.03;;;;;;;;;;5053658;28;20009;-62
2022/10/02 04:22:51;;;;;;;52.30;45.90;;;;;;;;;;5053570;28;20036;-61
2022/10/02 04:25:22;;;;;;;53.47;47.35;;;;;;;;;;5053302;28;20029;-62
2022/10/02 04:27:57;;;;;;;53.10;46.45;;;;;;;;;;5053305;28;20029;-62
2022/10/02 04:30:24;;;;;;;53.35;47.72;;;;;;;;;;5053403;28;20111;-62
2022/10/02 04:32:50;;;;;;;62.08;47.05;;;;;;;;;;5053328;28;20025;-62
2022/10/02 04:35:16;;;;;;;58.35;47.85;;;;;;;;;;5035210;28;20119;-62
2022/10/02 04:38:01;;;;;;;53.63;47.78;;;;;;;;;;5052897;28;20100;-62
2022/10/02 04:40:49;;;;;;;56.20;49.95;;;;;;;;;;5035427;28;20052;-62
2022/10/02 04:43:33;;;;;;;57.88;47.75;;;;;;;;;;5035100;28;20032;-62
2022/10/02 04:46:18;;;;;;;53.63;48.05;;;;;;;;;;5053276;28;20021;-62
2022/10/02 04:48:56;;;;;;;59.63;49.90;;;;;;;;;;5034047;28;20036;-62
2022/10/02 04:51:22;;;;;;;56.35;48.92;;;;;;;;;;5033147;28;20025;-60
2022/10/02 04:54:03;;;;;;;54.97;49.35;;;;;;;;;;5015143;28;20041;-62
2022/10/02 04:56:32;;;;;;;57.42;47.83;;;;;;;;;;5032921;28;20068;-59
2022/10/02 04:59:16;;;;;;;66.57;48.25;;;;;;;;;;5033103;28;20385;-61
2022/10/02 05:01:54;;;;;;;68.22;49.95;;;;;;;;;;5033081;28;20028;-63
2022/10/02 05:04:30;;;;;;;55.40;48.40;;;;;;;;;;5036267;28;20079;-59
2022/10/02 05:06:56;;;;;;;54.53;47.97;;;;;;;;;;5052778;28;20022;-62
2022/10/02 05:09:44;;;;;;;53.95;47.10;;;;;;;;;;5052770;28;20536;-62
2022/10/02 05:12:13;;;;;;;60.58;48.00;;;;;;;;;;5052191;28;20078;-62
2022/10/02 05:14:39;;;;;;;;;;;;;;;;;;5026615;28;20098;-62
2022/10/02 05:17:11;;;;;;;60.75;48.13;;;;;;;;;;5032719;28;19913;-62
2022/10/02 05:19:46;;;;;;;55.75;48.40;;;;;;;;;;5032549;28;20076;-62
2022/10/02 05:22:31;;;;;;;60.97;48.70;;;;;;;;;;5032612;28;20091;-62
2022/10/02 05:24:57;;;;;;;60.67;48.95;;;;;;;;;;5032343;28;20429;-62
2022/10/02 05:27:37;;;;;;;58.08;46.75;;;;;;;;;;5032125;28;20053;-62
2022/10/02 05:30:05;;;;;;;51.08;44.03;;;;;;;;;;5032466;28;20052;-62
2022/10/02 05:32:40;;;;;;;58.75;46.67;;;;;;;;;;5032252;28;20101;-61
2022/10/02 05:35:06;;;;;;;58.35;47.33;;;;;;;;;;5032268;28;20036;-62
2022/10/02 05:37:41;;;;;;;57.20;46.03;;;;;;;;;;5032323;28;20021;-61
2022/10/02 05:40:13;;;;;;;61.55;47.75;;;;;;;;;;5032558;28;20044;-62
2022/10/02 05:42:57;;;;;;;60.97;49.08;;;;;;;;;;5014334;28;20029;-61
2022/10/02 05:45:36;;;;;;;69.47;46.58;;;;;;;;;;5032396;28;20526;-63
2022/10/02 05:48:28;;;;;;;65.38;48.80;;;;;;;;;;5032416;28;20036;-62
2022/10/02 05:50:58;;;;;;;59.80;47.38;;;;;;;;;;5016596;28;20037;-63
2022/10/02 05:53:39;;;;;;;66.07;46.13;;;;;;;;;;5032506;28;20061;-61
2022/10/02 05:56:10;;;;;;;60.83;47.70;;;;;;;;;;5032716;28;20034;-61
2022/10/02 05:58:38;;;;;;;52.80;46.17;;;;;;;;;;5014878;28;20112;-60
2022/10/02 06:01:05;;;;;;;;;;;;;;;;;;5032764;28;20034;-61
2022/10/02 06:03:31;;;;;;;54.28;44.08;;;;;;;;;;5031980;28;20352;-60
2022/10/02 06:06:02;;;;;;;57.33;44.55;;;;;;;;;;5031894;28;20061;-61
2022/10/02 06:08:34;;;;;;;60.25;44.15;;;;;;;;;;5031932;28;20025;-61
2022/10/02 06:11:11;;;;;;;57.30;41.72;;;;;;;;;;5014379;28;20017;-61
2022/10/02 06:13:42;;;;;;;55.50;40.70;;;;;;;;;;5031638;28;20026;-61
2022/10/02 06:16:12;;;;;;;59.05;39.03;;;;;;;;;;5031714;28;20026;-59
2022/10/02 06:18:40;;;;;;;63.58;40.50;;;;;;;;;;5031641;28;20034;-61
2022/10/02 06:21:29;;;;;;;60.55;40.67;;;;;;;;;;5031551;28;20021;-61
2022/10/02 06:23:57;;;;;;;48.83;37.95;;;;;;;;;;5018850;28;20061;-61
2022/10/02 06:26:30;;;;;;;64.28;41.42;;;;;;;;;;5031490;28;20024;-61
2022/10/02 06:29:01;;;;;;;53.90;41.17;;;;;;;;;;5031702;28;20026;-61
2022/10/02 06:31:36;;;;;;;48.58;38.10;;;;;;;;;;5031622;28;20601;-61
2022/10/02 06:34:02;;;;;;;51.47;37.95;;;;;;;;;;5013429;28;20053;-61
2022/10/02 06:36:28;;;;;;;52.35;38.40;;;;;;;;;;5031234;28;20115;-61
2022/10/02 06:38:54;;;;;;;60.67;41.40;;;;;;;;;;5031658;28;20025;-62
2022/10/02 06:41:24;;;;;;;49.58;39.55;;;;;;;;;;5031626;28;20564;-61
2022/10/02 06:43:52;;;;;;;53.30;38.53;;;;;;;;;;5031868;28;20029;-61
2022/10/02 06:46:27;;;;;;;51.38;37.25;;;;;;;;;;5031667;28;20029;-61
2022/10/02 06:49:12;;;;;;;47.13;34.95;;;;;;;;;;5031569;28;20026;-61
2022/10/02 06:51:39;;;;;;;54.55;37.17;;;;;;;;;;5034197;28;20076;-61
2022/10/02 06:54:18;;;;;;;45.92;37.00;;;;;;;;;;5046008;28;20041;-61
2022/10/02 06:56:47;;;;;;;47.63;36.97;;;;;;;;;;5051478;28;20040;-62
2022/10/02 06:59:19;;;;;;;44.65;35.78;;;;;;;;;;5051549;28;20033;-61
2022/10/02 07:01:57;;;;;;;47.40;37.80;;;;;;;;;;5051785;28;20117;-61
2022/10/02 07:04:24;;;;;;;39.40;34.97;;;;;;;;;;5048112;28;20129;-62
2022/10/02 07:06:50;;;;;;;46.08;35.22;;;;;;;;;;5051010;28;20021;-62
2022/10/02 07:09:35;;;;;;;53.92;35.85;;;;;;;;;;5050970;28;20041;-61
2022/10/02 07:12:07;;;;;;;47.40;35.90;;;;;;;;;;5051091;28;20029;-61
2022/10/02 07:14:39;;;;;;;44.20;33.80;;;;;;;;;;5047681;28;20029;-61
2022/10/02 07:17:08;;;;;;;50.15;35.25;;;;;;;;;;5030882;28;20040;-61
2022/10/02 07:19:34;;;;;;;42.25;35.10;;;;;;;;;;5013268;28;20029;-62
2022/10/02 07:22:14;;;;;;;48.35;33.67;;;;;;;;;;5031031;28;20028;-61
2022/10/02 07:24:58;;;;;;;47.25;34.22;;;;;;;;;;5030656;28;20033;-61
2022/10/02 07:27:34;;;;;;;44.13;32.90;;;;;;;;;;5033481;28;20113;-63
2022/10/02 07:30:14;;;;;;;44.55;32.53;;;;;;;;;;5040857;28;20033;-64
2022/10/02 07:32:47;;;;;;;41.75;32.80;;;;;;;;;;5036675;28;20033;-63
2022/10/02 07:35:29;;;;;;;39.60;31.63;;;;;;;;;;5036456;28;20026;-63
2022/10/02 07:38:01;;;;;;;41.17;31.20;;;;;;;;;;5019532;28;20037;-64
2022/10/02 07:40:34;;;;;;;38.28;27.30;;;;;;;;;;5050894;28;20025;-64
2022/10/02 07:43:06;;;;;;;39.55;28.73;;;;;;;;;;5048503;28;20392;-64
2022/10/02 07:45:42;;;;;;;39.58;28.70;;;;;;;;;;5049360;28;20211;-63
2022/10/02 07:48:13;;;;;;;35.63;28.73;;;;;;;;;;5051980;28;20469;-64
2022/10/02 07:50:42;;;;;;;48.60;27.83;;;;;;;;;;5052719;28;20033;-63
2022/10/02 07:53:08;;;;;;;35.97;27.83;;;;;;;;;;5055105;28;20451;-64
2022/10/02 07:55:40;;;;;;;47.03;29.42;;;;;;;;;;5055500;28;20021;-64
2022/10/02 07:58:12;;;;;;;39.55;27.75;;;;;;;;;;5055434;28;20388;-63
2022/10/02 08:01:00;;;;;;;44.78;26.95;;;;;;;;;;5052820;28;20017;-67
2022/10/02 08:03:26;;;;;;;;;;;;;;;;;;5058541;28;20072;-70
2022/10/02 08:05:54;;;;;;;33.97;22.63;;;;;;;;;;5064636;28;19916;-67
2022/10/02 08:08:20;;;;;;;33.75;23.13;;;;;;;;;;5047334;28;20111;-67
2022/10/02 08:10:48;;;;;;;36.90;22.90;;;;;;;;;;5054603;28;20026;-67
2022/10/02 08:13:19;;;;;;;40.25;22.17;;;;;;;;;;5042945;28;20045;-67
2022/10/02 08:15:46;;;;;;;32.88;21.95;;;;;;;;;;5050200;28;20489;-67
2022/10/02 08:18:18;;;;;;;33.35;20.92;;;;;;;;;;5053938;28;20033;-67
2022/10/02 08:20:45;;;;;;;35.33;21.13;;;;;;;;;;5054294;28;20497;-67
2022/10/02 08:23:28;;;;;;;32.08;22.23;;;;;;;;;;5053686;28;20029;-67
2022/10/02 08:26:06;;;;;;;31.75;21.63;;;;;;;;;;5088017;22;20044;-67
2022/10/02 08:28:39;;;;;;;28.15;20.33;;;;;;;;;;5093329;28;20024;-68
2022/10/02 08:31:09;;;;;;;28.55;19.02;;;;;;;;;;5095222;28;20110;-68
2022/10/02 08:33:37;;;;;;;31.08;19.90;;;;;;;;;;5095406;28;20463;-68
2022/10/02 08:36:12;;;;;;;30.27;19.10;;;;;;;;;;5108836;28;20406;-68
2022/10/02 08:38:45;;;;;;;31.98;18.45;;;;;;;;;;5115076;28;20024;-68
2022/10/02 08:41:30;;;;;;;32.47;19.05;;;;;;;;;;5099021;28;20058;-67
2022/10/02 08:44:14;;;;;;;33.20;19.60;;;;;;;;;;5095110;28;20051;-67
2022/10/02 08:46:43;;;;;;;31.77;19.27;;;;;;;;;;5094671;28;20028;-68
2022/10/02 08:49:11;;;;;;;;;;;;;;;;;;5095285;28;20012;-68
2022/10/02 08:51:38;;;;;;;;;;;;;;;;;;5095238;28;19940;-68
2022/10/02 08:54:23;;;;;;;29.38;16.98;;;;;;;;;;5093330;28;19904;-68
2022/10/02 08:56:49;;;;;;;24.05;16.00;;;;;;;;;;5093280;28;20027;-69
2022/10/02 08:59:41;;;;;;;35.17;16.80;;;;;;;;;;5094698;28;20382;-69
2022/10/02 09:02:26;;;;;;;29.02;16.58;;;;;;;;;;5088281;28;20028;-68
2022/10/02 09:05:08;;;;;;;29.17;15.30;;;;;;;;;;5094209;28;20031;-68
2022/10/02 09:07:49;;;;;;;25.67;11.68;;;;;;;;;;5094459;28;20012;-68
2022/10/02 09:10:21;;;;;;;31.88;13.20;;;;;;;;;;5094354;28;20024;-68
2022/10/02 09:13:07;;;;;;;30.35;12.38;;;;;;;;;;5092975;28;20032;-69
2022/10/02 09:15:36;;;;;;;26.50;12.43;;;;;;;;;;5094409;28;20444;-68
2022/10/02 09:18:16;;;;;;;26.13;11.65;;;;;;;;;;5101676;28;20032;-69
2022/10/02 09:20:51;;;;;;;26.95;12.68;;;;;;;;;;5114573;28;20484;-69
2022/10/02 09:23:44;;;;;;;26.92;11.80;;;;;;;;;;5112585;28;20055;-69
2022/10/02 09:26:18;;;;;;;23.65;11.25;;;;;;;;;;5113352;28;20050;-68
2022/10/02 09:28:44;;;;;;;26.38;11.45;;;;;;;;;;5113649;28;20047;-69
2022/10/02 09:31:43;;;;;;;27.00;10.70;;;;;;;;;;5113552;28;20073;-68
2022/10/02 09:34:32;;;;;;;22.77;9.88;;;;;;;;;;5067992;28;20506;-67
2022/10/02 09:37:25;;;;;;;23.50;10.35;;;;;;;;;;5102547;28;20148;-66
2022/10/02 09:39:56;;;;;;;20.02;10.40;;;;;;;;;;5113451;28;20027;-67
2022/10/02 09:42:34;;;;;;;22.60;10.27;;;;;;;;;;5103683;28;20592;-67
2022/10/02 09:45:23;;;;;;;25.85;10.98;;;;;;;;;;5100944;28;20088;-67
2022/10/02 09:47:52;;;;;;;21.33;10.10;;;;;;;;;;5102409;28;20035;-68
2022/10/02 09:50:36;;;;;;;30.45;10.82;;;;;;;;;;5101365;28;20016;-66
2022/10/02 09:53:11;;;;;;;23.58;9.35;;;;;;;;;;5101135;28;20024;-65
2022/10/02 09:55:56;;;;;;;20.77;10.13;;;;;;;;;;5101075;28;20043;-67
2022/10/02 09:58:25;;;;;;;21.13;10.27;;;;;;;;;;5102881;28;20020;-67
2022/10/02 10:01:00;;;;;;;19.23;9.45;;;;;;;;;;5102758;28;20074;-67
2022/10/02 10:03:35;;;;;;;23.52;10.40;;;;;;;;;;5092130;28;20020;-68
2022/10/02 10:06:20;;;;;;;22.05;10.02;;;;;;;;;;5091838;28;20024;-67
2022/10/02 10:09:00;;;;;;;23.05;11.13;;;;;;;;;;5092152;28;20020;-68
2022/10/02 10:11:29;;;;;;;21.90;10.25;;;;;;;;;;5092357;28;20046;-67
2022/10/02 10:14:05;;;;;;;20.27;10.30;;;;;;;;;;5090239;28;20020;-67
2022/10/02 10:16:34;;;;;;;21.48;10.80;;;;;;;;;;5110050;28;20048;-68
2022/10/02 10:19:22;;;;;;;27.08;12.75;;;;;;;;;;5110945;28;20031;-63
2022/10/02 10:21:48;;;;;;;;;;;;;;;;;;5112845;28;20015;-69
2022/10/02 10:24:14;;;;;;;20.05;9.93;;;;;;;;;;5111093;28;19903;-67
2022/10/02 10:26:52;;;;;;;21.65;10.02;;;;;;;;;;5110971;28;20059;-67
2022/10/02 10:29:22;;;;;;;24.67;10.18;;;;;;;;;;5112347;28;20023;-67
2022/10/02 10:32:07;;;;;;;18.52;10.02;;;;;;;;;;5112485;28;20027;-67
2022/10/02 10:34:46;;;;;;;21.88;10.90;;;;;;;;;;5112274;28;20050;-68
2022/10/02 10:40:17;;;;;;;19.95;10.35;;;;;;;;;;5112666;28;19911;-69
2022/10/02 10:42:55;;;;;;;20.80;11.18;;;;;;;;;;5098227;28;20040;-69
2022/10/02 10:45:27;;;;;;;18.73;10.00;;;;;;;;;;5110905;28;20027;-69
2022/10/02 10:47:59;;;;;;;19.17;10.25;;;;;;;;;;5110854;28;20362;-68
2022/10/02 10:50:33;;;;;;;25.67;9.90;;;;;;;;;;5112498;28;20016;-70
2022/10/02 10:53:16;;;;;;;17.92;9.30;;;;;;;;;;5102470;28;20055;-71
2022/10/02 10:55:47;;;;;;;18.88;9.32;;;;;;;;;;5102309;28;20071;-69
2022/10/02 10:58:13;;;;;;;20.52;10.38;;;;;;;;;;5098684;28;20027;-69
2022/10/02 11:00:40;;;;;;;25.63;10.55;;;;;;;;;;5105988;28;20047;-69
2022/10/02 11:03:06;;;;;;;20.58;10.25;;;;;;;;;;5098061;28;20031;-71
2022/10/02 11:05:38;;;;;;;19.48;9.35;;;;;;;;;;5103215;28;20544;-72
2022/10/02 11:08:11;;;;;;;20.25;10.07;;;;;;;;;;5099139;28;20046;-68
2022/10/02 11:10:37;;;;;;;18.77;9.55;;;;;;;;;;5098876;28;20015;-69
2022/10/02 11:13:30;;;;;;;22.08;10.75;;;;;;;;;;5098443;28;20105;-69
2022/10/02 11:16:22;;;;;;;18.20;9.38;;;;;;;;;;5089447;28;20046;-70
2022/10/02 11:19:07;;;;;;;19.77;9.32;;;;;;;;;;4735896;28;9999747;-69
2022/10/02 11:21:54;;;;;;;19.88;9.27;;;;;;;;;;5103517;28;20490;-71
2022/10/02 11:24:37;;;;;;;20.42;9.30;;;;;;;;;;5098914;28;20111;-70
2022/10/02 11:27:18;;;;;;;24.02;11.15;;;;;;;;;;5094732;28;20096;-70
2022/10/02 11:29:58;;;;;;;17.60;9.02;;;;;;;;;;5099218;28;20028;-69
2022/10/02 11:32:36;;;;;;;19.83;8.95;;;;;;;;;;5100366;28;20024;-69
2022/10/02 11:35:18;;;;;;;19.23;9.77;;;;;;;;;;5101730;28;20223;-69
2022/10/02 11:37:47;;;;;;;21.13;9.32;;;;;;;;;;5110707;28;20059;-69
2022/10/02 11:40:22;;;;;;;21.38;8.68;;;;;;;;;;5097492;28;20482;-69
2022/10/02 11:42:48;;;;;;;20.25;9.98;;;;;;;;;;5100521;28;20771;-69
2022/10/02 11:45:22;;;;;;;19.65;9.68;;;;;;;;;;5109378;28;20367;-69
2022/10/02 11:48:08;;;;;;;18.17;8.93;;;;;;;;;;5114547;28;20023;-70
2022/10/02 11:50:37;;;;;;;19.38;9.07;;;;;;;;;;5101633;28;20083;-68
2022/10/02 11:53:18;;;;;;;18.67;9.38;;;;;;;;;;5115386;28;20072;-68
2022/10/02 11:55:53;;;;;;;19.20;9.63;;;;;;;;;;5104643;28;20024;-71
2022/10/02 11:58:22;;;;;;;21.45;10.30;;;;;;;;;;5101939;28;20062;-69
2022/10/02 12:00:57;;;;;;;18.42;9.15;;;;;;;;;;5108504;28;20035;-71
2022/10/02 12:03:36;;;;;;;17.33;9.40;;;;;;;;;;5093501;28;20024;-68
2022/10/02 12:06:20;;;;;;;20.05;9.90;;;;;;;;;;5098825;28;20028;-68
2022/10/02 12:08:57;;;;;;;19.33;9.20;;;;;;;;;;5110255;28;20023;-69
2022/10/02 12:11:47;;;;;;;19.35;9.43;;;;;;;;;;5111176;28;20047;-71
2022/10/02 12:14:29;;;;;;;16.52;8.90;;;;;;;;;;5107038;28;20051;-70
2022/10/02 12:17:21;;;;;;;21.35;9.82;;;;;;;;;;5095371;28;20024;-70
2022/10/02 12:28:41;;;;;;;17.65;9.13;;;;;;;;;;5111632;28;20035;-69
2022/10/02 12:31:09;;;;;;;19.65;9.05;;;;;;;;;;5108190;28;20530;-69
2022/10/02 12:33:44;;;;;;;19.42;9.35;;;;;;;;;;5097481;28;20035;-69
2022/10/02 12:36:32;;;;;;;19.85;9.35;;;;;;;;;;5093816;28;20082;-69
2022/10/02 12:38:58;;;;;;;;;;;;;;;;;;5097485;28;20031;-69
2022/10/02 12:41:43;;;;;;;21.60;9.40;;;;;;;;;;5100076;28;19908;-69
2022/10/02 12:44:44;;;;;;;18.30;10.25;;;;;;;;;;5109520;28;20034;-69
2022/10/02 12:47:31;;;;;;;19.70;8.68;;;;;;;;;;5065775;28;20034;-71
2022/10/02 12:49:57;;;;;;;18.55;8.57;;;;;;;;;;5093605;28;20440;-69
2022/10/02 12:52:33;;;;;;;22.95;9.68;;;;;;;;;;5094418;28;20059;-70
2022/10/02 12:55:17;;;;;;;20.90;9.48;;;;;;;;;;5109617;28;20031;-69
2022/10/02 12:57:55;;;;;;;18.90;9.80;;;;;;;;;;5113628;28;20039;-69
2022/10/02 13:00:44;;;;;;;19.13;9.02;;;;;;;;;;5115169;28;20038;-70
2022/10/02 13:03:20;;;;;;;21.80;10.57;;;;;;;;;;5086030;28;20035;-70
2022/10/02 13:06:18;;;;;;;19.42;9.73;;;;;;;;;;5093098;28;20522;-70
2022/10/02 13:08:47;;;;;;;18.07;9.50;;;;;;;;;;4705750;28;10000114;-71
2022/10/02 13:11:23;;;;;;;30.95;10.45;;;;;;;;;;5094038;28;20053;-69
2022/10/02 13:13:56;;;;;;;19.42;9.25;;;;;;;;;;5094007;28;20024;-69
2022/10/02 13:16:23;;;;;;;19.20;9.82;;;;;;;;;;5099200;28;20035;-70
2022/10/02 13:19:04;;;;;;;17.48;9.82;;;;;;;;;;5093767;28;20034;-70
2022/10/02 13:21:30;;;;;;;18.95;10.10;;;;;;;;;;5103889;28;20030;-70
2022/10/02 13:24:02;;;;;;;19.77;10.00;;;;;;;;;;5112647;28;20118;-69
2022/10/02 13:26:38;;;;;;;15.93;9.85;;;;;;;;;;5113017;28;20035;-69
2022/10/02 13:29:14;;;;;;;18.08;10.30;;;;;;;;;;5113467;28;20106;-69
2022/10/02 13:31:50;;;;;;;18.38;9.80;;;;;;;;;;5113211;28;20035;-68
2022/10/02 13:34:35;;;;;;;19.85;10.27;;;;;;;;;;5093136;28;20027;-70
2022/10/02 13:37:04;;;;;;;19.60;10.90;;;;;;;;;;5101208;28;20479;-69
2022/10/02 13:39:39;;;;;;;20.10;10.48;;;;;;;;;;5093880;28;20020;-69
2022/10/02 13:42:08;;;;;;;19.15;10.45;;;;;;;;;;5102301;28;20020;-68
2022/10/02 13:44:44;;;;;;;17.55;10.82;;;;;;;;;;5091793;28;20050;-67
2022/10/02 13:47:21;;;;;;;17.75;10.57;;;;;;;;;;5100051;28;20095;-69
2022/10/02 13:49:47;;;;;;;18.15;11.27;;;;;;;;;;4740988;28;10000382;-68
2022/10/02 13:52:22;;;;;;;17.40;10.95;;;;;;;;;;5093331;28;20099;-70
2022/10/02 13:54:56;;;;;;;19.08;11.70;;;;;;;;;;5092756;28;20028;-68
2022/10/02 13:57:22;;;;;;;19.75;12.10;;;;;;;;;;5094887;28;20030;-68
2022/10/02 14:00:08;;;;;;;17.23;11.20;;;;;;;;;;5091818;28;20031;-70
2022/10/02 14:02:46;;;;;;;20.63;11.35;;;;;;;;;;5091834;28;20710;-71
2022/10/02 14:05:19;;;;;;;20.58;11.48;;;;;;;;;;5091030;28;20536;-69
2022/10/02 14:07:48;;;;;;;17.45;10.63;;;;;;;;;;5089136;28;20028;-67
2022/10/02 14:10:21;;;;;;;18.05;10.45;;;;;;;;;;5091165;28;20027;-67
2022/10/02 14:12:53;;;;;;;17.52;10.57;;;;;;;;;;5100116;28;20431;-67
2022/10/02 14:15:25;;;;;;;19.83;11.15;;;;;;;;;;5097431;28;20031;-65
2022/10/02 14:18:03;;;;;;;18.77;10.80;;;;;;;;;;5097922;28;20032;-66
2022/10/02 14:20:39;;;;;;;17.70;10.57;;;;;;;;;;5095012;28;20029;-64
2022/10/02 14:23:11;;;;;;;17.00;11.30;;;;;;;;;;5099606;28;20032;-64
2022/10/02 14:26:10;;;;;;;19.90;10.68;;;;;;;;;;5095566;28;20054;-65
2022/10/02 14:28:41;;;;;;;18.75;10.07;;;;;;;;;;5052740;28;20040;-65
2022/10/02 14:31:13;;;;;;;18.25;10.20;;;;;;;;;;5089379;28;20027;-65
2022/10/02 14:34:03;;;;;;;16.30;9.60;;;;;;;;;;5090235;28;20032;-67
2022/10/02 14:36:39;;;;;;;17.20;10.23;;;;;;;;;;5081234;28;20172;-67
2022/10/02 14:39:23;;;;;;;20.33;10.73;;;;;;;;;;5091141;28;20028;-67
2022/10/02 14:42:08;;;;;;;18.20;9.73;;;;;;;;;;4750332;28;10000489;-66
2022/10/02 14:44:47;;;;;;;21.23;9.55;;;;;;;;;;5107757;28;20119;-66
2022/10/02 14:47:34;;;;;;;19.05;9.70;;;;;;;;;;5089109;28;20028;-66
2022/10/02 14:50:22;;;;;;;20.27;9.88;;;;;;;;;;5088535;28;20122;-63
2022/10/02 14:53:03;;;;;;;17.63;10.25;;;;;;;;;;5092103;28;20046;-66
2022/10/02 14:55:30;;;;;;;17.70;9.95;;;;;;;;;;5096162;28;20025;-66
2022/10/02 14:58:02;;;;;;;16.90;9.60;;;;;;;;;;5106729;28;20509;-67
2022/10/02 15:00:48;;;;;;;16.42;9.35;;;;;;;;;;5110543;28;20028;-66
2022/10/02 15:03:34;;;;;;;20.42;9.75;;;;;;;;;;5113369;28;21008;-67
2022/10/02 15:06:04;;;;;;;19.67;10.95;;;;;;;;;;5112336;28;20043;-64
2022/10/02 15:08:36;;;;;;;18.35;9.50;;;;;;;;;;5100598;28;20051;-67
2022/10/02 15:11:05;;;;;;;19.58;9.60;;;;;;;;;;5100464;28;20023;-68
2022/10/02 15:13:43;;;;;;;17.85;9.60;;;;;;;;;;5105672;28;20080;-68
2022/10/02 15:19:07;;;;;;;16.60;9.48;;;;;;;;;;5114482;28;20496;-67